sensor_id;sensor_type;location;lat;lon;timestamp;temperature;humidity
56771;DHT22;42641;59.794;17.616;2023-03-05T00:01:54;-1.20;97.60
56771;DHT22;42641;59.794;17.616;2023-03-05T00:04:21;-1.20;97.70
56771;DHT22;42641;59.794;17.616;2023-03-05T00:06:48;-1.20;97.80
56771;DHT22;42641;59.794;17.616;2023-03-05T00:09:14;-1.20;97.90
56771;DHT22;42641;59.794;17.616;2023-03-05T00:11:41;-1.20;97.90
56771;DHT22;42641;59.794;17.616;2023-03-05T00:14:08;-1.20;97.90
56771;DHT22;42641;59.794;17.616;2023-03-05T00:16:35;-1.20;97.80
56771;DHT22;42641;59.794;17.616;2023-03-05T00:19:01;-1.20;97.80
56771;DHT22;42641;59.794;17.616;2023-03-05T00:21:36;-1.20;98.00
56771;DHT22;42641;59.794;17.616;2023-03-05T00:24:06;-1.20;98.00
56771;DHT22;42641;59.794;17.616;2023-03-05T00:26:35;-1.20;98.10
56771;DHT22;42641;59.794;17.616;2023-03-05T00:29:02;-1.20;98.00
56771;DHT22;42641;59.794;17.616;2023-03-05T00:31:30;-1.20;98.10
56771;DHT22;42641;59.794;17.616;2023-03-05T00:34:03;-1.20;98.20
56771;DHT22;42641;59.794;17.616;2023-03-05T00:36:30;-1.30;98.20
56771;DHT22;42641;59.794;17.616;2023-03-05T00:38:56;-1.30;98.50
56771;DHT22;42641;59.794;17.616;2023-03-05T00:41:23;-1.30;98.70
56771;DHT22;42641;59.794;17.616;2023-03-05T00:43:49;-1.30;98.50
56771;DHT22;42641;59.794;17.616;2023-03-05T00:46:16;-1.30;98.50
56771;DHT22;42641;59.794;17.616;2023-03-05T00:48:44;-1.30;98.70
56771;DHT22;42641;59.794;17.616;2023-03-05T00:51:10;-1.40;98.70
56771;DHT22;42641;59.794;17.616;2023-03-05T00:53:36;-1.40;98.90
56771;DHT22;42641;59.794;17.616;2023-03-05T00:56:04;-1.40;98.70
56771;DHT22;42641;59.794;17.616;2023-03-05T00:58:30;-1.40;98.90
56771;DHT22;42641;59.794;17.616;2023-03-05T01:00:58;-1.40;99.00
56771;DHT22;42641;59.794;17.616;2023-03-05T01:03:25;-1.40;99.10
56771;DHT22;42641;59.794;17.616;2023-03-05T01:05:51;-1.40;99.10
56771;DHT22;42641;59.794;17.616;2023-03-05T01:08:18;-1.40;99.10
56771;DHT22;42641;59.794;17.616;2023-03-05T01:10:45;-1.40;99.00
56771;DHT22;42641;59.794;17.616;2023-03-05T01:13:11;-1.50;99.10
56771;DHT22;42641;59.794;17.616;2023-03-05T01:15:38;-1.50;99.20
56771;DHT22;42641;59.794;17.616;2023-03-05T01:18:04;-1.50;99.30
56771;DHT22;42641;59.794;17.616;2023-03-05T01:20:30;-1.50;99.20
56771;DHT22;42641;59.794;17.616;2023-03-05T01:22:57;-1.50;99.40
56771;DHT22;42641;59.794;17.616;2023-03-05T01:25:25;-1.50;99.40
56771;DHT22;42641;59.794;17.616;2023-03-05T01:27:51;-1.50;99.40
56771;DHT22;42641;59.794;17.616;2023-03-05T01:30:18;-1.50;99.50
56771;DHT22;42641;59.794;17.616;2023-03-05T01:32:45;-1.50;99.40
56771;DHT22;42641;59.794;17.616;2023-03-05T01:35:17;-1.50;99.60
56771;DHT22;42641;59.794;17.616;2023-03-05T01:37:44;-1.60;99.80
56771;DHT22;42641;59.794;17.616;2023-03-05T01:40:13;-1.60;99.80
56771;DHT22;42641;59.794;17.616;2023-03-05T01:42:43;-1.60;99.80
56771;DHT22;42641;59.794;17.616;2023-03-05T01:45:12;-1.60;99.90
56771;DHT22;42641;59.794;17.616;2023-03-05T01:47:39;-1.60;99.90
56771;DHT22;42641;59.794;17.616;2023-03-05T01:50:08;-1.60;99.90
56771;DHT22;42641;59.794;17.616;2023-03-05T01:52:39;-1.60;99.90
56771;DHT22;42641;59.794;17.616;2023-03-05T01:55:14;-1.60;99.90
56771;DHT22;42641;59.794;17.616;2023-03-05T01:57:47;-1.60;99.90
56771;DHT22;42641;59.794;17.616;2023-03-05T02:00:45;-1.60;99.90
56771;DHT22;42641;59.794;17.616;2023-03-05T02:03:12;-1.60;99.90
56771;DHT22;42641;59.794;17.616;2023-03-05T02:05:40;-1.60;99.90
56771;DHT22;42641;59.794;17.616;2023-03-05T02:08:11;-1.60;99.90
56771;DHT22;42641;59.794;17.616;2023-03-05T02:10:41;-1.60;99.90
56771;DHT22;42641;59.794;17.616;2023-03-05T02:13:11;-1.60;99.90
56771;DHT22;42641;59.794;17.616;2023-03-05T02:15:38;-1.60;99.90
56771;DHT22;42641;59.794;17.616;2023-03-05T02:18:06;-1.60;99.90
56771;DHT22;42641;59.794;17.616;2023-03-05T02:23:13;-1.60;99.90
56771;DHT22;42641;59.794;17.616;2023-03-05T02:25:40;-1.60;99.90
56771;DHT22;42641;59.794;17.616;2023-03-05T02:28:15;-1.60;99.90
56771;DHT22;42641;59.794;17.616;2023-03-05T02:30:43;-1.50;99.90
56771;DHT22;42641;59.794;17.616;2023-03-05T02:33:10;-1.50;99.90
56771;DHT22;42641;59.794;17.616;2023-03-05T02:35:38;-1.50;99.90
56771;DHT22;42641;59.794;17.616;2023-03-05T02:38:05;-1.60;99.90
56771;DHT22;42641;59.794;17.616;2023-03-05T02:40:31;-1.50;99.90
56771;DHT22;42641;59.794;17.616;2023-03-05T02:42:58;-1.60;99.90
56771;DHT22;42641;59.794;17.616;2023-03-05T02:45:25;-1.60;99.90
56771;DHT22;42641;59.794;17.616;2023-03-05T02:47:52;-1.60;99.90
56771;DHT22;42641;59.794;17.616;2023-03-05T02:50:20;-1.60;99.90
56771;DHT22;42641;59.794;17.616;2023-03-05T02:52:47;-1.60;99.90
56771;DHT22;42641;59.794;17.616;2023-03-05T02:55:15;-1.60;99.90
56771;DHT22;42641;59.794;17.616;2023-03-05T02:57:43;-1.60;99.90
56771;DHT22;42641;59.794;17.616;2023-03-05T03:00:10;-1.60;99.90
56771;DHT22;42641;59.794;17.616;2023-03-05T03:02:36;-1.70;99.90
56771;DHT22;42641;59.794;17.616;2023-03-05T03:05:04;-1.70;99.90
56771;DHT22;42641;59.794;17.616;2023-03-05T03:07:31;-1.70;99.90
56771;DHT22;42641;59.794;17.616;2023-03-05T03:09:59;-1.70;99.90
56771;DHT22;42641;59.794;17.616;2023-03-05T03:12:25;-1.80;99.90
56771;DHT22;42641;59.794;17.616;2023-03-05T03:14:52;-1.80;99.90
56771;DHT22;42641;59.794;17.616;2023-03-05T03:17:18;-1.80;99.90
56771;DHT22;42641;59.794;17.616;2023-03-05T03:19:45;-1.90;99.90
56771;DHT22;42641;59.794;17.616;2023-03-05T03:22:14;-1.90;99.90
56771;DHT22;42641;59.794;17.616;2023-03-05T03:24:41;-1.90;99.90
56771;DHT22;42641;59.794;17.616;2023-03-05T03:27:08;-1.90;99.90
56771;DHT22;42641;59.794;17.616;2023-03-05T03:29:35;-1.90;99.90
56771;DHT22;42641;59.794;17.616;2023-03-05T03:32:03;-2.00;99.90
56771;DHT22;42641;59.794;17.616;2023-03-05T03:34:29;-2.00;99.90
56771;DHT22;42641;59.794;17.616;2023-03-05T03:36:56;-2.00;99.90
56771;DHT22;42641;59.794;17.616;2023-03-05T03:39:22;-2.00;99.90
56771;DHT22;42641;59.794;17.616;2023-03-05T03:41:51;-2.10;99.90
56771;DHT22;42641;59.794;17.616;2023-03-05T03:44:19;-2.10;99.90
56771;DHT22;42641;59.794;17.616;2023-03-05T03:46:46;-2.10;99.90
56771;DHT22;42641;59.794;17.616;2023-03-05T03:49:18;-2.10;99.90
56771;DHT22;42641;59.794;17.616;2023-03-05T03:51:46;-2.10;99.90
56771;DHT22;42641;59.794;17.616;2023-03-05T03:54:14;-2.10;99.90
56771;DHT22;42641;59.794;17.616;2023-03-05T03:56:41;-2.10;99.90
56771;DHT22;42641;59.794;17.616;2023-03-05T03:59:08;-2.10;99.90
56771;DHT22;42641;59.794;17.616;2023-03-05T04:01:34;-2.10;99.90
56771;DHT22;42641;59.794;17.616;2023-03-05T04:04:02;-2.20;99.90
56771;DHT22;42641;59.794;17.616;2023-03-05T04:06:28;-2.20;99.90
56771;DHT22;42641;59.794;17.616;2023-03-05T04:08:54;-2.20;99.90
56771;DHT22;42641;59.794;17.616;2023-03-05T04:11:21;-2.20;99.90
56771;DHT22;42641;59.794;17.616;2023-03-05T04:13:48;-2.20;99.90
56771;DHT22;42641;59.794;17.616;2023-03-05T04:16:15;-2.20;99.90
56771;DHT22;42641;59.794;17.616;2023-03-05T04:18:41;-2.20;99.90
56771;DHT22;42641;59.794;17.616;2023-03-05T04:21:08;-2.20;99.90
56771;DHT22;42641;59.794;17.616;2023-03-05T04:23:35;-2.30;99.90
56771;DHT22;42641;59.794;17.616;2023-03-05T04:26:01;-2.30;99.90
56771;DHT22;42641;59.794;17.616;2023-03-05T04:28:28;-2.30;99.90
56771;DHT22;42641;59.794;17.616;2023-03-05T04:30:54;-2.30;99.90
56771;DHT22;42641;59.794;17.616;2023-03-05T04:33:21;-2.40;99.90
56771;DHT22;42641;59.794;17.616;2023-03-05T04:35:47;-2.40;99.90
56771;DHT22;42641;59.794;17.616;2023-03-05T04:38:13;-2.40;99.90
56771;DHT22;42641;59.794;17.616;2023-03-05T04:40:40;-2.40;99.90
56771;DHT22;42641;59.794;17.616;2023-03-05T04:43:06;-2.40;99.90
56771;DHT22;42641;59.794;17.616;2023-03-05T04:45:33;-2.40;99.90
56771;DHT22;42641;59.794;17.616;2023-03-05T04:47:59;-2.40;99.90
56771;DHT22;42641;59.794;17.616;2023-03-05T04:50:26;-2.40;99.90
56771;DHT22;42641;59.794;17.616;2023-03-05T04:52:52;-2.50;99.90
56771;DHT22;42641;59.794;17.616;2023-03-05T04:55:18;-2.40;99.90
56771;DHT22;42641;59.794;17.616;2023-03-05T04:57:45;-2.40;99.90
56771;DHT22;42641;59.794;17.616;2023-03-05T05:00:13;-2.50;99.90
56771;DHT22;42641;59.794;17.616;2023-03-05T05:02:45;-2.50;99.90
56771;DHT22;42641;59.794;17.616;2023-03-05T05:05:16;-2.60;99.90
56771;DHT22;42641;59.794;17.616;2023-03-05T05:07:43;-2.60;99.90
56771;DHT22;42641;59.794;17.616;2023-03-05T05:10:10;-2.60;99.90
56771;DHT22;42641;59.794;17.616;2023-03-05T05:12:37;-2.60;99.90
56771;DHT22;42641;59.794;17.616;2023-03-05T05:15:05;-2.60;99.90
56771;DHT22;42641;59.794;17.616;2023-03-05T05:17:32;-2.70;99.90
56771;DHT22;42641;59.794;17.616;2023-03-05T05:20:00;-2.70;99.90
56771;DHT22;42641;59.794;17.616;2023-03-05T05:22:27;-2.70;99.90
56771;DHT22;42641;59.794;17.616;2023-03-05T05:24:54;-2.70;99.90
56771;DHT22;42641;59.794;17.616;2023-03-05T05:27:21;-2.70;99.90
56771;DHT22;42641;59.794;17.616;2023-03-05T05:29:48;-2.70;99.90
56771;DHT22;42641;59.794;17.616;2023-03-05T05:32:19;-2.80;99.90
56771;DHT22;42641;59.794;17.616;2023-03-05T05:34:46;-2.80;99.90
56771;DHT22;42641;59.794;17.616;2023-03-05T05:37:13;-2.70;99.90
56771;DHT22;42641;59.794;17.616;2023-03-05T05:39:39;-2.70;99.90
56771;DHT22;42641;59.794;17.616;2023-03-05T05:42:05;-2.70;99.90
56771;DHT22;42641;59.794;17.616;2023-03-05T05:44:32;-2.70;99.90
56771;DHT22;42641;59.794;17.616;2023-03-05T05:47:00;-2.70;99.90
56771;DHT22;42641;59.794;17.616;2023-03-05T05:49:26;-2.70;99.90
56771;DHT22;42641;59.794;17.616;2023-03-05T05:51:53;-2.80;99.90
56771;DHT22;42641;59.794;17.616;2023-03-05T05:54:19;-2.80;99.90
56771;DHT22;42641;59.794;17.616;2023-03-05T05:56:45;-2.80;99.90
56771;DHT22;42641;59.794;17.616;2023-03-05T05:59:12;-2.70;99.90
56771;DHT22;42641;59.794;17.616;2023-03-05T06:01:38;-2.70;99.90
56771;DHT22;42641;59.794;17.616;2023-03-05T06:04:04;-2.70;99.90
56771;DHT22;42641;59.794;17.616;2023-03-05T06:06:31;-2.70;99.90
56771;DHT22;42641;59.794;17.616;2023-03-05T06:09:00;-2.70;99.90
56771;DHT22;42641;59.794;17.616;2023-03-05T06:11:26;-2.70;99.90
56771;DHT22;42641;59.794;17.616;2023-03-05T06:13:53;-2.70;99.90
56771;DHT22;42641;59.794;17.616;2023-03-05T06:16:21;-2.70;99.90
56771;DHT22;42641;59.794;17.616;2023-03-05T06:18:50;-2.70;99.90
56771;DHT22;42641;59.794;17.616;2023-03-05T06:21:18;-2.70;99.90
56771;DHT22;42641;59.794;17.616;2023-03-05T06:23:46;-2.60;99.90
56771;DHT22;42641;59.794;17.616;2023-03-05T06:26:16;-2.50;99.90
56771;DHT22;42641;59.794;17.616;2023-03-05T06:28:42;-2.50;99.90
56771;DHT22;42641;59.794;17.616;2023-03-05T06:31:11;-2.30;99.90
56771;DHT22;42641;59.794;17.616;2023-03-05T06:33:38;-2.20;99.90
56771;DHT22;42641;59.794;17.616;2023-03-05T06:36:13;-2.10;99.90
56771;DHT22;42641;59.794;17.616;2023-03-05T06:38:40;-2.00;99.90
56771;DHT22;42641;59.794;17.616;2023-03-05T06:41:11;-1.80;99.90
56771;DHT22;42641;59.794;17.616;2023-03-05T06:43:40;-1.70;99.90
56771;DHT22;42641;59.794;17.616;2023-03-05T06:48:41;-1.50;99.90
56771;DHT22;42641;59.794;17.616;2023-03-05T06:51:17;-1.30;99.90
56771;DHT22;42641;59.794;17.616;2023-03-05T06:53:44;-1.20;99.90
56771;DHT22;42641;59.794;17.616;2023-03-05T06:56:11;-1.10;99.90
56771;DHT22;42641;59.794;17.616;2023-03-05T06:58:40;-1.10;99.90
56771;DHT22;42641;59.794;17.616;2023-03-05T07:01:06;-1.00;99.90
56771;DHT22;42641;59.794;17.616;2023-03-05T07:03:33;-1.00;99.90
56771;DHT22;42641;59.794;17.616;2023-03-05T07:06:04;-0.90;99.90
56771;DHT22;42641;59.794;17.616;2023-03-05T07:08:31;-0.90;99.90
56771;DHT22;42641;59.794;17.616;2023-03-05T07:10:59;-0.80;99.90
56771;DHT22;42641;59.794;17.616;2023-03-05T07:13:26;-0.80;99.90
56771;DHT22;42641;59.794;17.616;2023-03-05T07:15:52;-0.80;99.90
56771;DHT22;42641;59.794;17.616;2023-03-05T07:18:19;-0.80;99.90
56771;DHT22;42641;59.794;17.616;2023-03-05T07:20:45;-0.70;99.90
56771;DHT22;42641;59.794;17.616;2023-03-05T07:23:12;-0.60;99.90
56771;DHT22;42641;59.794;17.616;2023-03-05T07:25:38;-0.50;99.90
56771;DHT22;42641;59.794;17.616;2023-03-05T07:28:05;-0.40;99.90
56771;DHT22;42641;59.794;17.616;2023-03-05T07:30:33;-0.30;99.90
56771;DHT22;42641;59.794;17.616;2023-03-05T07:32:59;-0.20;99.90
56771;DHT22;42641;59.794;17.616;2023-03-05T07:35:27;-0.10;99.90
56771;DHT22;42641;59.794;17.616;2023-03-05T07:37:53;0.00;99.90
56771;DHT22;42641;59.794;17.616;2023-03-05T07:40:20;0.00;99.90
56771;DHT22;42641;59.794;17.616;2023-03-05T07:42:47;0.10;99.90
56771;DHT22;42641;59.794;17.616;2023-03-05T07:45:22;0.10;99.90
56771;DHT22;42641;59.794;17.616;2023-03-05T07:47:49;0.00;99.90
56771;DHT22;42641;59.794;17.616;2023-03-05T07:50:15;0.00;99.90
56771;DHT22;42641;59.794;17.616;2023-03-05T07:52:42;0.10;99.90
56771;DHT22;42641;59.794;17.616;2023-03-05T07:55:09;0.10;99.90
56771;DHT22;42641;59.794;17.616;2023-03-05T07:57:36;0.20;99.90
56771;DHT22;42641;59.794;17.616;2023-03-05T08:00:05;0.30;99.90
56771;DHT22;42641;59.794;17.616;2023-03-05T08:02:37;0.40;99.90
56771;DHT22;42641;59.794;17.616;2023-03-05T08:05:04;0.40;99.60
56771;DHT22;42641;59.794;17.616;2023-03-05T08:07:30;0.50;99.60
56771;DHT22;42641;59.794;17.616;2023-03-05T08:09:57;0.60;99.30
56771;DHT22;42641;59.794;17.616;2023-03-05T08:12:23;0.80;99.40
56771;DHT22;42641;59.794;17.616;2023-03-05T08:14:50;0.90;99.20
56771;DHT22;42641;59.794;17.616;2023-03-05T08:17:16;1.00;99.20
56771;DHT22;42641;59.794;17.616;2023-03-05T08:19:43;1.10;99.20
56771;DHT22;42641;59.794;17.616;2023-03-05T08:22:09;1.30;99.00
56771;DHT22;42641;59.794;17.616;2023-03-05T08:24:36;1.40;98.50
56771;DHT22;42641;59.794;17.616;2023-03-05T08:27:02;1.40;98.60
56771;DHT22;42641;59.794;17.616;2023-03-05T08:29:29;1.30;98.10
56771;DHT22;42641;59.794;17.616;2023-03-05T08:31:56;1.30;98.60
56771;DHT22;42641;59.794;17.616;2023-03-05T08:34:22;1.40;98.60
56771;DHT22;42641;59.794;17.616;2023-03-05T08:36:49;1.50;98.30
56771;DHT22;42641;59.794;17.616;2023-03-05T08:39:15;1.50;98.10
56771;DHT22;42641;59.794;17.616;2023-03-05T08:41:42;1.60;98.10
56771;DHT22;42641;59.794;17.616;2023-03-05T08:44:08;1.60;97.90
56771;DHT22;42641;59.794;17.616;2023-03-05T08:46:37;1.60;97.50
56771;DHT22;42641;59.794;17.616;2023-03-05T08:49:03;1.70;97.30
56771;DHT22;42641;59.794;17.616;2023-03-05T08:51:32;1.60;97.30
56771;DHT22;42641;59.794;17.616;2023-03-05T08:53:59;1.70;97.40
56771;DHT22;42641;59.794;17.616;2023-03-05T08:56:27;1.90;97.50
56771;DHT22;42641;59.794;17.616;2023-03-05T08:58:56;2.00;97.30
56771;DHT22;42641;59.794;17.616;2023-03-05T09:01:22;2.10;96.80
56771;DHT22;42641;59.794;17.616;2023-03-05T09:03:49;2.10;97.00
56771;DHT22;42641;59.794;17.616;2023-03-05T09:06:16;2.00;96.60
56771;DHT22;42641;59.794;17.616;2023-03-05T09:08:42;1.90;96.80
56771;DHT22;42641;59.794;17.616;2023-03-05T09:11:11;1.90;96.90
56771;DHT22;42641;59.794;17.616;2023-03-05T09:13:38;2.00;96.60
56771;DHT22;42641;59.794;17.616;2023-03-05T09:16:07;2.00;96.90
56771;DHT22;42641;59.794;17.616;2023-03-05T09:18:34;2.10;96.60
56771;DHT22;42641;59.794;17.616;2023-03-05T09:21:10;2.20;96.40
56771;DHT22;42641;59.794;17.616;2023-03-05T09:23:36;2.30;96.60
56771;DHT22;42641;59.794;17.616;2023-03-05T09:26:10;2.40;96.60
56771;DHT22;42641;59.794;17.616;2023-03-05T09:28:39;2.40;96.10
56771;DHT22;42641;59.794;17.616;2023-03-05T09:31:06;2.50;96.50
56771;DHT22;42641;59.794;17.616;2023-03-05T09:33:33;2.60;96.10
56771;DHT22;42641;59.794;17.616;2023-03-05T09:36:01;2.60;96.00
56771;DHT22;42641;59.794;17.616;2023-03-05T09:38:29;2.60;95.80
56771;DHT22;42641;59.794;17.616;2023-03-05T09:41:05;2.90;96.20
56771;DHT22;42641;59.794;17.616;2023-03-05T09:52:21;3.40;96.60
56771;DHT22;42641;59.794;17.616;2023-03-05T09:54:53;3.30;96.90
56771;DHT22;42641;59.794;17.616;2023-03-05T09:57:28;3.20;97.00
56771;DHT22;42641;59.794;17.616;2023-03-05T10:08:55;3.00;97.30
56771;DHT22;42641;59.794;17.616;2023-03-05T10:13:58;3.10;97.60
56771;DHT22;42641;59.794;17.616;2023-03-05T10:16:46;3.20;97.30
56771;DHT22;42641;59.794;17.616;2023-03-05T10:22:16;3.60;97.20
56771;DHT22;42641;59.794;17.616;2023-03-05T10:27:57;3.40;96.50
56771;DHT22;42641;59.794;17.616;2023-03-05T10:36:02;3.30;97.70
56771;DHT22;42641;59.794;17.616;2023-03-05T10:44:43;2.80;98.80
56771;DHT22;42641;59.794;17.616;2023-03-05T10:47:29;2.50;99.10
56771;DHT22;42641;59.794;17.616;2023-03-05T10:49:57;2.50;99.70
56771;DHT22;42641;59.794;17.616;2023-03-05T10:53:00;2.60;99.60
56771;DHT22;42641;59.794;17.616;2023-03-05T10:55:31;2.80;99.80
56771;DHT22;42641;59.794;17.616;2023-03-05T10:57:58;3.00;99.40
56771;DHT22;42641;59.794;17.616;2023-03-05T11:00:27;3.10;99.20
56771;DHT22;42641;59.794;17.616;2023-03-05T11:11:16;2.50;99.90
56771;DHT22;42641;59.794;17.616;2023-03-05T11:13:54;2.10;99.90
56771;DHT22;42641;59.794;17.616;2023-03-05T11:16:25;2.00;99.90
56771;DHT22;42641;59.794;17.616;2023-03-05T11:21:41;1.80;99.90
56771;DHT22;42641;59.794;17.616;2023-03-05T11:24:09;1.80;99.90
56771;DHT22;42641;59.794;17.616;2023-03-05T11:26:56;1.80;99.90
56771;DHT22;42641;59.794;17.616;2023-03-05T11:29:25;1.90;99.90
56771;DHT22;42641;59.794;17.616;2023-03-05T11:31:53;1.90;99.90
56771;DHT22;42641;59.794;17.616;2023-03-05T11:39:21;1.80;99.90
56771;DHT22;42641;59.794;17.616;2023-03-05T11:44:29;1.90;99.90
56771;DHT22;42641;59.794;17.616;2023-03-05T11:49:53;2.00;99.90
56771;DHT22;42641;59.794;17.616;2023-03-05T11:55:39;2.10;99.90
56771;DHT22;42641;59.794;17.616;2023-03-05T11:58:23;2.20;99.90
56771;DHT22;42641;59.794;17.616;2023-03-05T12:00:51;2.30;99.90
56771;DHT22;42641;59.794;17.616;2023-03-05T12:03:21;2.40;99.90
56771;DHT22;42641;59.794;17.616;2023-03-05T12:05:53;2.60;99.90
56771;DHT22;42641;59.794;17.616;2023-03-05T12:08:26;2.80;99.90
56771;DHT22;42641;59.794;17.616;2023-03-05T12:16:49;4.20;99.90
56771;DHT22;42641;59.794;17.616;2023-03-05T12:19:32;4.50;99.90
56771;DHT22;42641;59.794;17.616;2023-03-05T12:22:19;4.40;99.90
56771;DHT22;42641;59.794;17.616;2023-03-05T12:24:47;4.20;99.90
56771;DHT22;42641;59.794;17.616;2023-03-05T12:27:15;4.00;99.90
56771;DHT22;42641;59.794;17.616;2023-03-05T12:35:38;3.40;99.90
56771;DHT22;42641;59.794;17.616;2023-03-05T12:38:31;3.30;99.90
56771;DHT22;42641;59.794;17.616;2023-03-05T12:43:45;3.20;99.90
56771;DHT22;42641;59.794;17.616;2023-03-05T12:46:37;3.20;99.90
56771;DHT22;42641;59.794;17.616;2023-03-05T12:51:48;3.10;99.90
56771;DHT22;42641;59.794;17.616;2023-03-05T12:57:01;3.00;99.90
56771;DHT22;42641;59.794;17.616;2023-03-05T13:02:25;3.10;99.30
56771;DHT22;42641;59.794;17.616;2023-03-05T13:04:57;3.30;98.90
56771;DHT22;42641;59.794;17.616;2023-03-05T13:07:24;3.30;98.80
56771;DHT22;42641;59.794;17.616;2023-03-05T13:33:25;3.40;97.00
56771;DHT22;42641;59.794;17.616;2023-03-05T13:35:52;3.50;97.60
56771;DHT22;42641;59.794;17.616;2023-03-05T13:41:06;3.40;97.70
56771;DHT22;42641;59.794;17.616;2023-03-05T13:43:40;3.30;97.10
56771;DHT22;42641;59.794;17.616;2023-03-05T13:46:06;3.10;96.70
56771;DHT22;42641;59.794;17.616;2023-03-05T13:48:33;3.00;97.70
56771;DHT22;42641;59.794;17.616;2023-03-05T13:50:59;3.00;97.70
56771;DHT22;42641;59.794;17.616;2023-03-05T13:53:28;3.10;97.80
56771;DHT22;42641;59.794;17.616;2023-03-05T13:56:07;2.90;97.70
56771;DHT22;42641;59.794;17.616;2023-03-05T14:01:34;2.70;96.90
56771;DHT22;42641;59.794;17.616;2023-03-05T14:04:06;2.60;97.20
56771;DHT22;42641;59.794;17.616;2023-03-05T14:06:39;2.60;97.10
56771;DHT22;42641;59.794;17.616;2023-03-05T14:09:25;2.60;96.80
56771;DHT22;42641;59.794;17.616;2023-03-05T14:12:04;2.60;96.70
56771;DHT22;42641;59.794;17.616;2023-03-05T14:14:35;2.60;97.00
56771;DHT22;42641;59.794;17.616;2023-03-05T14:22:45;2.60;97.50
56771;DHT22;42641;59.794;17.616;2023-03-05T14:28:02;2.70;98.20
56771;DHT22;42641;59.794;17.616;2023-03-05T14:30:29;2.60;98.90
56771;DHT22;42641;59.794;17.616;2023-03-05T14:32:57;2.50;99.70
56771;DHT22;42641;59.794;17.616;2023-03-05T14:35:27;2.30;99.90
56771;DHT22;42641;59.794;17.616;2023-03-05T14:40:49;1.90;99.90
56771;DHT22;42641;59.794;17.616;2023-03-05T14:43:16;1.70;99.90
56771;DHT22;42641;59.794;17.616;2023-03-05T14:45:43;1.80;99.90
56771;DHT22;42641;59.794;17.616;2023-03-05T14:48:12;1.80;99.90
56771;DHT22;42641;59.794;17.616;2023-03-05T14:50:44;1.70;99.90
56771;DHT22;42641;59.794;17.616;2023-03-05T14:53:26;1.70;99.90
56771;DHT22;42641;59.794;17.616;2023-03-05T14:55:54;1.60;99.90
56771;DHT22;42641;59.794;17.616;2023-03-05T14:58:24;1.50;99.90
56771;DHT22;42641;59.794;17.616;2023-03-05T15:00:52;1.50;99.90
56771;DHT22;42641;59.794;17.616;2023-03-05T15:03:20;1.50;99.90
56771;DHT22;42641;59.794;17.616;2023-03-05T15:05:50;1.40;99.90
56771;DHT22;42641;59.794;17.616;2023-03-05T15:08:28;1.40;99.90
56771;DHT22;42641;59.794;17.616;2023-03-05T15:10:55;1.40;99.90
56771;DHT22;42641;59.794;17.616;2023-03-05T15:13:22;1.30;99.90
56771;DHT22;42641;59.794;17.616;2023-03-05T15:15:49;1.10;99.90
56771;DHT22;42641;59.794;17.616;2023-03-05T15:18:18;1.10;99.90
56771;DHT22;42641;59.794;17.616;2023-03-05T15:20:45;1.10;99.90
56771;DHT22;42641;59.794;17.616;2023-03-05T15:23:14;1.10;99.90
56771;DHT22;42641;59.794;17.616;2023-03-05T15:25:41;1.00;99.90
56771;DHT22;42641;59.794;17.616;2023-03-05T15:28:07;0.90;99.90
56771;DHT22;42641;59.794;17.616;2023-03-05T15:30:36;0.90;99.90
56771;DHT22;42641;59.794;17.616;2023-03-05T15:33:09;0.90;99.90
56771;DHT22;42641;59.794;17.616;2023-03-05T15:35:36;0.80;99.90
56771;DHT22;42641;59.794;17.616;2023-03-05T15:38:02;0.70;99.90
56771;DHT22;42641;59.794;17.616;2023-03-05T15:40:29;0.70;99.90
56771;DHT22;42641;59.794;17.616;2023-03-05T15:42:57;0.70;99.90
56771;DHT22;42641;59.794;17.616;2023-03-05T15:45:24;0.40;99.90
56771;DHT22;42641;59.794;17.616;2023-03-05T15:47:52;0.20;99.90
56771;DHT22;42641;59.794;17.616;2023-03-05T15:50:19;0.10;99.90
56771;DHT22;42641;59.794;17.616;2023-03-05T15:52:46;0.00;99.90
56771;DHT22;42641;59.794;17.616;2023-03-05T15:55:13;-0.10;99.90
56771;DHT22;42641;59.794;17.616;2023-03-05T15:57:44;0.00;99.90
56771;DHT22;42641;59.794;17.616;2023-03-05T16:00:13;0.00;99.90
56771;DHT22;42641;59.794;17.616;2023-03-05T16:02:40;-0.10;99.90
56771;DHT22;42641;59.794;17.616;2023-03-05T16:05:07;-0.10;99.90
56771;DHT22;42641;59.794;17.616;2023-03-05T16:07:36;-0.20;99.90
56771;DHT22;42641;59.794;17.616;2023-03-05T16:10:04;-0.20;99.90
56771;DHT22;42641;59.794;17.616;2023-03-05T16:12:35;-0.20;99.90
56771;DHT22;42641;59.794;17.616;2023-03-05T16:15:17;-0.10;99.90
56771;DHT22;42641;59.794;17.616;2023-03-05T16:17:46;-0.20;99.90
56771;DHT22;42641;59.794;17.616;2023-03-05T16:20:14;-0.30;99.90
56771;DHT22;42641;59.794;17.616;2023-03-05T16:22:40;-0.30;99.90
56771;DHT22;42641;59.794;17.616;2023-03-05T16:25:07;-0.30;99.90
56771;DHT22;42641;59.794;17.616;2023-03-05T16:27:34;-0.30;99.90
56771;DHT22;42641;59.794;17.616;2023-03-05T16:30:00;-0.30;99.90
56771;DHT22;42641;59.794;17.616;2023-03-05T16:32:27;-0.30;99.90
56771;DHT22;42641;59.794;17.616;2023-03-05T16:34:53;-0.30;99.90
56771;DHT22;42641;59.794;17.616;2023-03-05T16:37:21;-0.30;99.90
56771;DHT22;42641;59.794;17.616;2023-03-05T16:39:48;-0.30;99.90
56771;DHT22;42641;59.794;17.616;2023-03-05T16:42:15;-0.40;99.90
56771;DHT22;42641;59.794;17.616;2023-03-05T16:44:42;-0.40;99.90
56771;DHT22;42641;59.794;17.616;2023-03-05T16:47:10;-0.50;99.90
56771;DHT22;42641;59.794;17.616;2023-03-05T16:49:38;-0.50;99.90
56771;DHT22;42641;59.794;17.616;2023-03-05T16:52:05;-0.50;99.90
56771;DHT22;42641;59.794;17.616;2023-03-05T16:54:32;-0.50;99.90
56771;DHT22;42641;59.794;17.616;2023-03-05T16:56:59;-0.50;99.90
56771;DHT22;42641;59.794;17.616;2023-03-05T16:59:26;-0.50;99.90
56771;DHT22;42641;59.794;17.616;2023-03-05T17:01:53;-0.60;99.90
56771;DHT22;42641;59.794;17.616;2023-03-05T17:04:19;-0.60;99.90
56771;DHT22;42641;59.794;17.616;2023-03-05T17:06:46;-0.60;99.90
56771;DHT22;42641;59.794;17.616;2023-03-05T17:09:14;-0.60;99.90
56771;DHT22;42641;59.794;17.616;2023-03-05T17:11:44;-0.50;99.90
56771;DHT22;42641;59.794;17.616;2023-03-05T17:14:10;-0.60;99.90
56771;DHT22;42641;59.794;17.616;2023-03-05T17:16:37;-0.50;99.90
56771;DHT22;42641;59.794;17.616;2023-03-05T17:19:03;-0.50;99.90
56771;DHT22;42641;59.794;17.616;2023-03-05T17:21:30;-0.50;99.90
56771;DHT22;42641;59.794;17.616;2023-03-05T17:23:56;-0.60;99.90
56771;DHT22;42641;59.794;17.616;2023-03-05T17:26:22;-0.60;99.90
56771;DHT22;42641;59.794;17.616;2023-03-05T17:28:49;-0.50;99.90
56771;DHT22;42641;59.794;17.616;2023-03-05T17:31:15;-0.50;99.90
56771;DHT22;42641;59.794;17.616;2023-03-05T17:33:42;-0.60;99.90
56771;DHT22;42641;59.794;17.616;2023-03-05T17:36:14;-0.60;99.90
56771;DHT22;42641;59.794;17.616;2023-03-05T17:38:42;-0.60;99.90
56771;DHT22;42641;59.794;17.616;2023-03-05T17:41:08;-0.60;99.90
56771;DHT22;42641;59.794;17.616;2023-03-05T17:43:35;-0.60;99.90